CST,Max TemperatureF,Mean TemperatureF,Min TemperatureF,Max Dew PointF,MeanDew PointF,Min DewpointF,Max Humidity, Mean Humidity, Min Humidity, Max Sea Level PressureIn, Mean Sea Level PressureIn, Min Sea Level PressureIn, Max VisibilityMiles, Mean VisibilityMiles, Min VisibilityMiles, Max Wind SpeedMPH, Mean Wind SpeedMPH, Max Gust SpeedMPH,PrecipitationIn, CloudCover, Events, WindDirDegrees
2014-1-1,1,-2,-6,-8,-11,-16,69,64,60,30.54,30.49,30.45,10,10,10,9,6,,0.00,8,,28
2014-1-2,1,-5,-11,-10,-15,-19,74,60,43,30.56,30.51,30.44,10,10,10,7,5,,0.00,2,,322
2014-1-3,28,7,-14,25,9,-20,88,76,61,30.43,29.75,29.42,10,6,1,25,14,33,0.06,7,Rain-Snow,181
2014-1-4,36,18,-2,31,11,-10,86,72,56,30.32,29.83,29.40,10,9,4,28,13,36,0.01,4,Rain-Snow,295
2014-1-5,-4,-11,-18,-12,-19,-29,75,62,51,30.45,30.39,30.31,10,10,9,20,12,26,0.00,1,,305
2014-1-6,-11,-16,-22,-22,-26,-31,74,64,54,30.39,30.32,30.22,10,8,3,18,12,24,0.00,4,Snow,283
2014-1-7,3,-7,-17,-9,-14,-23,82,68,53,30.32,30.25,30.19,10,10,10,8,5,,0.00,1,,248
2014-1-8,3,-3,-9,-10,-12,-16,83,69,55,30.54,30.48,30.34,10,10,10,8,4,,0.00,0,,289
2014-1-9,21,5,-11,13,4,-15,88,74,59,30.48,30.18,29.91,10,9,4,16,10,,0.00,4,,157
2014-1-10,30,22,15,30,24,12,100,91,79,29.92,29.68,29.47,6,3,0,16,9,21,0.00,8,Fog,179
2014-1-11,30,26,21,29,24,19,96,88,75,29.71,29.58,29.46,10,7,2,16,7,20,0.00,6,,263
2014-1-12,39,31,23,31,27,19,85,75,63,29.64,29.46,29.37,10,10,8,13,7,,0.00,1,,209
2014-1-13,33,30,26,28,22,16,85,75,61,29.69,29.62,29.51,10,10,4,18,7,25,0.00,4,Snow,269
2014-1-14,28,18,7,27,16,0,93,80,62,30.17,29.77,29.46,10,4,1,22,10,30,0.08,6,Snow,336
2014-1-15,27,12,0,20,7,-6,86,77,67,30.19,29.87,29.44,10,8,1,23,10,30,0.00,5,Snow,206
2014-1-16,36,22,7,32,16,-3,89,74,52,29.93,29.54,29.35,10,7,1,32,13,44,0.01,8,Snow,294
2014-1-17,12,6,0,3,-2,-7,84,70,56,30.10,30.01,29.82,10,10,10,16,10,23,0.00,3,,298
2014-1-18,23,18,12,13,10,4,88,79,63,29.99,29.71,29.51,10,6,0,17,11,24,0.04,5,Fog-Snow,90
2014-1-19,37,28,18,27,23,13,85,74,64,29.73,29.60,29.47,10,10,10,15,10,21,0.00,3,,269
2014-1-20,30,14,-5,25,9,-17,86,70,47,30.49,30.01,29.71,10,7,0,18,10,25,0.00,7,Snow,353
2014-1-21,7,-6,-17,2,-11,-23,91,72,56,30.54,30.28,29.98,10,7,2,9,6,,0.00,5,Snow,203
2014-1-22,8,0,-9,3,-7,-18,84,66,52,30.56,30.14,29.95,10,8,2,25,12,34,0.00,5,Snow,320
2014-1-23,0,-10,-17,-7,-17,-23,83,70,59,30.81,30.65,30.25,10,10,10,14,10,20,0.00,0,,274
2014-1-24,34,20,6,32,19,-6,93,74,39,30.17,29.65,29.47,10,7,0,22,14,31,0.05,7,Fog-Snow,257
2014-1-25,21,11,1,4,-4,-11,85,62,41,29.96,29.75,29.51,10,7,0,23,13,31,0.07,3,Fog-Snow,310
2014-1-26,18,6,-8,10,1,-18,87,73,53,30.14,29.54,29.38,10,6,1,36,12,46,0.04,6,Snow,313
2014-1-27,-7,-12,-16,-19,-22,-26,79,61,53,30.51,30.41,30.18,10,10,10,16,13,25,0.00,0,,282
2014-1-28,0,-9,-18,-11,-17,-24,79,69,57,30.45,30.34,30.17,10,10,10,13,7,22,0.00,0,,247
2014-1-29,32,12,-7,16,2,-13,79,63,48,30.16,29.87,29.59,10,10,10,18,8,,0.00,1,,211
2014-1-30,28,13,-5,21,10,-13,93,74,56,30.12,29.65,29.43,10,5,0,18,10,29,0.13,4,Fog-Snow,349
2014-1-31,6,-2,-11,-5,-10,-19,83,70,58,30.22,30.14,30.07,10,10,10,10,6,,0.00,0,,211